sensor_id;sensor_type;location;lat;lon;timestamp;temperature;humidity
17599;DHT22;8918;52.092;5.232;2022-12-22T00:02:23;9.20;99.90
17599;DHT22;8918;52.092;5.232;2022-12-22T00:05:19;9.10;99.90
17599;DHT22;8918;52.092;5.232;2022-12-22T00:08:04;9.10;99.90
17599;DHT22;8918;52.092;5.232;2022-12-22T00:10:50;9.10;99.90
17599;DHT22;8918;52.092;5.232;2022-12-22T00:13:35;9.10;99.90
17599;DHT22;8918;52.092;5.232;2022-12-22T00:16:20;9.20;99.90
17599;DHT22;8918;52.092;5.232;2022-12-22T00:19:11;9.20;99.90
17599;DHT22;8918;52.092;5.232;2022-12-22T00:21:59;9.20;99.90
17599;DHT22;8918;52.092;5.232;2022-12-22T00:24:43;9.10;99.90
17599;DHT22;8918;52.092;5.232;2022-12-22T00:27:30;9.10;99.90
17599;DHT22;8918;52.092;5.232;2022-12-22T00:30:15;9.10;99.90
17599;DHT22;8918;52.092;5.232;2022-12-22T00:33:01;9.10;99.90
17599;DHT22;8918;52.092;5.232;2022-12-22T00:35:47;9.20;99.90
17599;DHT22;8918;52.092;5.232;2022-12-22T00:38:31;9.20;99.90
17599;DHT22;8918;52.092;5.232;2022-12-22T00:41:15;9.20;99.90
17599;DHT22;8918;52.092;5.232;2022-12-22T00:44:00;9.30;99.90
17599;DHT22;8918;52.092;5.232;2022-12-22T00:46:44;9.30;99.90
17599;DHT22;8918;52.092;5.232;2022-12-22T00:49:31;9.30;99.90
17599;DHT22;8918;52.092;5.232;2022-12-22T00:52:17;9.30;99.90
17599;DHT22;8918;52.092;5.232;2022-12-22T00:55:11;9.30;99.90
17599;DHT22;8918;52.092;5.232;2022-12-22T00:57:56;9.30;99.90
17599;DHT22;8918;52.092;5.232;2022-12-22T01:00:40;9.30;99.90
17599;DHT22;8918;52.092;5.232;2022-12-22T01:03:25;9.30;99.90
17599;DHT22;8918;52.092;5.232;2022-12-22T01:06:09;9.30;99.90
17599;DHT22;8918;52.092;5.232;2022-12-22T01:08:54;9.40;99.90
17599;DHT22;8918;52.092;5.232;2022-12-22T01:11:38;9.40;99.90
17599;DHT22;8918;52.092;5.232;2022-12-22T01:14:22;9.30;99.90
17599;DHT22;8918;52.092;5.232;2022-12-22T01:17:09;9.30;99.90
17599;DHT22;8918;52.092;5.232;2022-12-22T01:19:53;9.30;99.90
17599;DHT22;8918;52.092;5.232;2022-12-22T01:22:38;9.30;99.90
17599;DHT22;8918;52.092;5.232;2022-12-22T01:25:22;9.40;99.90
17599;DHT22;8918;52.092;5.232;2022-12-22T01:28:13;9.40;99.90
17599;DHT22;8918;52.092;5.232;2022-12-22T01:31:18;9.40;99.90
17599;DHT22;8918;52.092;5.232;2022-12-22T01:34:03;9.50;99.90
17599;DHT22;8918;52.092;5.232;2022-12-22T01:36:48;9.40;99.90
17599;DHT22;8918;52.092;5.232;2022-12-22T01:39:32;9.40;99.90
17599;DHT22;8918;52.092;5.232;2022-12-22T01:42:17;9.40;99.90
17599;DHT22;8918;52.092;5.232;2022-12-22T01:45:36;9.50;99.90
17599;DHT22;8918;52.092;5.232;2022-12-22T01:48:27;9.50;99.90
17599;DHT22;8918;52.092;5.232;2022-12-22T01:51:18;9.50;99.90
17599;DHT22;8918;52.092;5.232;2022-12-22T01:54:04;9.50;99.90
17599;DHT22;8918;52.092;5.232;2022-12-22T01:56:49;9.40;99.90
17599;DHT22;8918;52.092;5.232;2022-12-22T01:59:33;9.40;99.90
17599;DHT22;8918;52.092;5.232;2022-12-22T02:02:18;9.40;99.90
17599;DHT22;8918;52.092;5.232;2022-12-22T02:05:05;9.40;99.90
17599;DHT22;8918;52.092;5.232;2022-12-22T02:08:24;9.40;99.90
17599;DHT22;8918;52.092;5.232;2022-12-22T02:17:27;9.40;99.90
17599;DHT22;8918;52.092;5.232;2022-12-22T02:20:37;9.40;99.90
17599;DHT22;8918;52.092;5.232;2022-12-22T02:26:26;9.40;99.90
17599;DHT22;8918;52.092;5.232;2022-12-22T02:29:12;9.30;99.90
17599;DHT22;8918;52.092;5.232;2022-12-22T02:31:56;9.40;99.90
17599;DHT22;8918;52.092;5.232;2022-12-22T02:34:40;9.40;99.90
17599;DHT22;8918;52.092;5.232;2022-12-22T02:37:35;9.30;99.90
17599;DHT22;8918;52.092;5.232;2022-12-22T02:40:33;9.30;99.90
17599;DHT22;8918;52.092;5.232;2022-12-22T02:46:32;9.30;99.90
17599;DHT22;8918;52.092;5.232;2022-12-22T02:49:26;9.40;99.90
17599;DHT22;8918;52.092;5.232;2022-12-22T02:52:16;9.40;99.90
17599;DHT22;8918;52.092;5.232;2022-12-22T02:55:02;9.40;99.90
17599;DHT22;8918;52.092;5.232;2022-12-22T02:57:50;9.40;99.90
17599;DHT22;8918;52.092;5.232;2022-12-22T03:00:35;9.30;99.90
17599;DHT22;8918;52.092;5.232;2022-12-22T03:03:19;9.30;99.90
17599;DHT22;8918;52.092;5.232;2022-12-22T03:06:04;9.30;99.90
17599;DHT22;8918;52.092;5.232;2022-12-22T03:08:48;9.20;99.90
17599;DHT22;8918;52.092;5.232;2022-12-22T03:11:32;9.20;99.90
17599;DHT22;8918;52.092;5.232;2022-12-22T03:14:16;9.30;99.90
17599;DHT22;8918;52.092;5.232;2022-12-22T03:17:01;9.40;99.90
17599;DHT22;8918;52.092;5.232;2022-12-22T03:19:45;9.30;99.90
17599;DHT22;8918;52.092;5.232;2022-12-22T03:22:29;9.20;99.90
17599;DHT22;8918;52.092;5.232;2022-12-22T03:25:13;9.20;99.90
17599;DHT22;8918;52.092;5.232;2022-12-22T03:28:06;9.20;99.90
17599;DHT22;8918;52.092;5.232;2022-12-22T03:30:32;9.20;99.90
17599;DHT22;8918;52.092;5.232;2022-12-22T03:32:57;9.10;99.90
17599;DHT22;8918;52.092;5.232;2022-12-22T03:35:23;9.10;99.90
17599;DHT22;8918;52.092;5.232;2022-12-22T03:37:49;9.10;99.90
17599;DHT22;8918;52.092;5.232;2022-12-22T03:40:15;9.10;99.90
17599;DHT22;8918;52.092;5.232;2022-12-22T03:42:40;9.10;99.90
17599;DHT22;8918;52.092;5.232;2022-12-22T03:45:25;9.10;99.90
17599;DHT22;8918;52.092;5.232;2022-12-22T03:48:09;9.20;99.90
17599;DHT22;8918;52.092;5.232;2022-12-22T03:50:35;9.10;99.90
17599;DHT22;8918;52.092;5.232;2022-12-22T03:53:00;9.10;99.90
17599;DHT22;8918;52.092;5.232;2022-12-22T03:55:26;9.10;99.90
17599;DHT22;8918;52.092;5.232;2022-12-22T03:57:52;9.10;99.90
17599;DHT22;8918;52.092;5.232;2022-12-22T04:00:17;9.00;99.90
17599;DHT22;8918;52.092;5.232;2022-12-22T04:02:43;9.10;99.90
17599;DHT22;8918;52.092;5.232;2022-12-22T04:05:09;9.10;99.90
17599;DHT22;8918;52.092;5.232;2022-12-22T04:07:35;9.10;99.90
17599;DHT22;8918;52.092;5.232;2022-12-22T04:10:01;9.10;99.90
17599;DHT22;8918;52.092;5.232;2022-12-22T04:12:45;9.10;99.90
17599;DHT22;8918;52.092;5.232;2022-12-22T04:15:25;9.10;99.90
17599;DHT22;8918;52.092;5.232;2022-12-22T04:17:51;9.10;99.90
17599;DHT22;8918;52.092;5.232;2022-12-22T04:20:17;9.10;99.90
17599;DHT22;8918;52.092;5.232;2022-12-22T04:22:43;9.10;99.90
17599;DHT22;8918;52.092;5.232;2022-12-22T04:25:09;9.10;99.90
17599;DHT22;8918;52.092;5.232;2022-12-22T04:27:35;9.00;99.90
17599;DHT22;8918;52.092;5.232;2022-12-22T04:30:00;9.00;99.90
17599;DHT22;8918;52.092;5.232;2022-12-22T04:32:26;9.00;99.90
17599;DHT22;8918;52.092;5.232;2022-12-22T04:34:51;9.00;99.90
17599;DHT22;8918;52.092;5.232;2022-12-22T04:37:17;9.00;99.90
17599;DHT22;8918;52.092;5.232;2022-12-22T04:39:42;9.00;99.90
17599;DHT22;8918;52.092;5.232;2022-12-22T04:42:08;9.00;99.90
17599;DHT22;8918;52.092;5.232;2022-12-22T04:44:33;9.00;99.90
17599;DHT22;8918;52.092;5.232;2022-12-22T04:46:59;9.10;99.90
17599;DHT22;8918;52.092;5.232;2022-12-22T04:49:24;9.10;99.90
17599;DHT22;8918;52.092;5.232;2022-12-22T04:51:50;9.10;99.90
17599;DHT22;8918;52.092;5.232;2022-12-22T04:54:15;9.10;99.90
17599;DHT22;8918;52.092;5.232;2022-12-22T04:56:41;9.00;99.90
17599;DHT22;8918;52.092;5.232;2022-12-22T04:59:07;9.00;99.90
17599;DHT22;8918;52.092;5.232;2022-12-22T05:01:32;9.00;99.90
17599;DHT22;8918;52.092;5.232;2022-12-22T05:03:58;9.00;99.90
17599;DHT22;8918;52.092;5.232;2022-12-22T05:06:23;9.10;99.90
17599;DHT22;8918;52.092;5.232;2022-12-22T05:08:49;9.10;99.90
17599;DHT22;8918;52.092;5.232;2022-12-22T05:11:14;9.10;99.90
17599;DHT22;8918;52.092;5.232;2022-12-22T05:13:40;9.10;99.90
17599;DHT22;8918;52.092;5.232;2022-12-22T05:16:08;9.10;99.90
17599;DHT22;8918;52.092;5.232;2022-12-22T05:18:34;9.10;99.90
17599;DHT22;8918;52.092;5.232;2022-12-22T05:21:10;9.10;99.90
17599;DHT22;8918;52.092;5.232;2022-12-22T05:23:35;9.20;99.90
17599;DHT22;8918;52.092;5.232;2022-12-22T05:26:01;9.10;99.90
17599;DHT22;8918;52.092;5.232;2022-12-22T05:28:27;9.20;99.90
17599;DHT22;8918;52.092;5.232;2022-12-22T05:30:53;9.20;99.90
17599;DHT22;8918;52.092;5.232;2022-12-22T05:33:19;9.20;99.90
17599;DHT22;8918;52.092;5.232;2022-12-22T05:35:45;9.20;99.90
17599;DHT22;8918;52.092;5.232;2022-12-22T05:38:10;9.20;99.90
17599;DHT22;8918;52.092;5.232;2022-12-22T05:40:36;9.10;99.90
17599;DHT22;8918;52.092;5.232;2022-12-22T05:43:01;9.10;99.90
17599;DHT22;8918;52.092;5.232;2022-12-22T05:45:27;9.20;99.90
17599;DHT22;8918;52.092;5.232;2022-12-22T05:47:52;9.10;99.90
17599;DHT22;8918;52.092;5.232;2022-12-22T05:50:20;9.10;99.90
17599;DHT22;8918;52.092;5.232;2022-12-22T05:52:46;9.10;99.90
17599;DHT22;8918;52.092;5.232;2022-12-22T05:55:13;9.10;99.90
17599;DHT22;8918;52.092;5.232;2022-12-22T05:57:39;9.10;99.90
17599;DHT22;8918;52.092;5.232;2022-12-22T06:00:07;9.00;99.90
17599;DHT22;8918;52.092;5.232;2022-12-22T06:02:33;9.10;99.90
17599;DHT22;8918;52.092;5.232;2022-12-22T06:04:59;9.00;99.90
17599;DHT22;8918;52.092;5.232;2022-12-22T06:07:24;9.00;99.90
17599;DHT22;8918;52.092;5.232;2022-12-22T06:09:50;9.00;99.90
17599;DHT22;8918;52.092;5.232;2022-12-22T06:12:15;9.00;99.90
17599;DHT22;8918;52.092;5.232;2022-12-22T06:14:41;9.00;99.90
17599;DHT22;8918;52.092;5.232;2022-12-22T06:17:06;9.00;99.90
17599;DHT22;8918;52.092;5.232;2022-12-22T06:19:32;9.00;99.90
17599;DHT22;8918;52.092;5.232;2022-12-22T06:21:58;9.00;99.90
17599;DHT22;8918;52.092;5.232;2022-12-22T06:24:23;8.90;99.90
17599;DHT22;8918;52.092;5.232;2022-12-22T06:26:49;8.90;99.90
17599;DHT22;8918;52.092;5.232;2022-12-22T06:29:14;8.90;99.90
17599;DHT22;8918;52.092;5.232;2022-12-22T06:31:40;8.80;99.90
17599;DHT22;8918;52.092;5.232;2022-12-22T06:34:07;8.80;99.90
17599;DHT22;8918;52.092;5.232;2022-12-22T06:36:32;8.80;99.90
17599;DHT22;8918;52.092;5.232;2022-12-22T06:38:58;8.80;99.90
17599;DHT22;8918;52.092;5.232;2022-12-22T06:41:24;8.70;99.90
17599;DHT22;8918;52.092;5.232;2022-12-22T06:44:12;8.80;99.90
17599;DHT22;8918;52.092;5.232;2022-12-22T06:46:38;8.70;99.90
17599;DHT22;8918;52.092;5.232;2022-12-22T06:49:04;8.70;99.90
17599;DHT22;8918;52.092;5.232;2022-12-22T06:51:29;8.60;99.90
17599;DHT22;8918;52.092;5.232;2022-12-22T06:53:55;8.60;99.90
17599;DHT22;8918;52.092;5.232;2022-12-22T06:56:20;8.60;99.90
17599;DHT22;8918;52.092;5.232;2022-12-22T06:58:46;8.60;99.90
17599;DHT22;8918;52.092;5.232;2022-12-22T07:01:11;8.50;99.90
17599;DHT22;8918;52.092;5.232;2022-12-22T07:03:37;8.50;99.90
17599;DHT22;8918;52.092;5.232;2022-12-22T07:06:03;8.40;99.90
17599;DHT22;8918;52.092;5.232;2022-12-22T07:08:29;8.40;99.90
17599;DHT22;8918;52.092;5.232;2022-12-22T07:10:54;8.30;99.90
17599;DHT22;8918;52.092;5.232;2022-12-22T07:13:29;8.20;99.90
17599;DHT22;8918;52.092;5.232;2022-12-22T07:15:56;8.20;99.90
17599;DHT22;8918;52.092;5.232;2022-12-22T07:18:21;8.20;99.90
17599;DHT22;8918;52.092;5.232;2022-12-22T07:20:47;8.10;99.90
17599;DHT22;8918;52.092;5.232;2022-12-22T07:23:13;8.20;99.90
17599;DHT22;8918;52.092;5.232;2022-12-22T07:25:38;8.20;99.90
17599;DHT22;8918;52.092;5.232;2022-12-22T07:28:05;8.20;99.90
17599;DHT22;8918;52.092;5.232;2022-12-22T07:30:31;8.20;99.90
17599;DHT22;8918;52.092;5.232;2022-12-22T07:32:56;8.20;99.90
17599;DHT22;8918;52.092;5.232;2022-12-22T07:35:22;8.20;99.90
17599;DHT22;8918;52.092;5.232;2022-12-22T07:37:48;8.20;99.90
17599;DHT22;8918;52.092;5.232;2022-12-22T07:40:14;8.20;99.90
17599;DHT22;8918;52.092;5.232;2022-12-22T07:42:39;8.20;99.90
17599;DHT22;8918;52.092;5.232;2022-12-22T07:45:17;8.20;99.90
17599;DHT22;8918;52.092;5.232;2022-12-22T07:47:44;8.20;99.90
17599;DHT22;8918;52.092;5.232;2022-12-22T07:50:13;8.20;99.90
17599;DHT22;8918;52.092;5.232;2022-12-22T07:55:19;8.10;99.90
17599;DHT22;8918;52.092;5.232;2022-12-22T07:57:45;8.10;99.90
17599;DHT22;8918;52.092;5.232;2022-12-22T08:00:11;8.10;99.90
17599;DHT22;8918;52.092;5.232;2022-12-22T08:02:37;8.00;99.90
17599;DHT22;8918;52.092;5.232;2022-12-22T08:05:03;8.00;99.90
17599;DHT22;8918;52.092;5.232;2022-12-22T08:07:28;8.00;99.90
17599;DHT22;8918;52.092;5.232;2022-12-22T08:09:54;8.00;99.90
17599;DHT22;8918;52.092;5.232;2022-12-22T08:12:19;8.00;99.90
17599;DHT22;8918;52.092;5.232;2022-12-22T08:14:45;8.00;99.90
17599;DHT22;8918;52.092;5.232;2022-12-22T08:17:11;8.00;99.90
17599;DHT22;8918;52.092;5.232;2022-12-22T08:19:37;8.00;99.90
17599;DHT22;8918;52.092;5.232;2022-12-22T08:22:03;8.00;99.90
17599;DHT22;8918;52.092;5.232;2022-12-22T08:24:29;8.00;99.90
17599;DHT22;8918;52.092;5.232;2022-12-22T08:26:57;7.90;99.90
17599;DHT22;8918;52.092;5.232;2022-12-22T08:29:31;8.00;99.90
17599;DHT22;8918;52.092;5.232;2022-12-22T08:31:59;7.90;99.90
17599;DHT22;8918;52.092;5.232;2022-12-22T08:34:25;8.00;99.90
17599;DHT22;8918;52.092;5.232;2022-12-22T08:36:54;8.00;99.90
17599;DHT22;8918;52.092;5.232;2022-12-22T08:39:22;8.00;99.90
17599;DHT22;8918;52.092;5.232;2022-12-22T08:41:50;8.00;99.90
17599;DHT22;8918;52.092;5.232;2022-12-22T08:44:17;8.00;99.90
17599;DHT22;8918;52.092;5.232;2022-12-22T08:46:43;8.00;99.90
17599;DHT22;8918;52.092;5.232;2022-12-22T08:49:09;8.00;99.90
17599;DHT22;8918;52.092;5.232;2022-12-22T08:51:34;8.00;99.90
17599;DHT22;8918;52.092;5.232;2022-12-22T08:54:00;8.00;99.90
17599;DHT22;8918;52.092;5.232;2022-12-22T08:56:26;7.90;99.90
17599;DHT22;8918;52.092;5.232;2022-12-22T08:58:51;8.00;99.90
17599;DHT22;8918;52.092;5.232;2022-12-22T09:01:18;8.00;99.90
17599;DHT22;8918;52.092;5.232;2022-12-22T09:03:51;8.00;99.90
17599;DHT22;8918;52.092;5.232;2022-12-22T09:06:19;8.10;99.90
17599;DHT22;8918;52.092;5.232;2022-12-22T09:08:46;8.20;99.90
17599;DHT22;8918;52.092;5.232;2022-12-22T09:11:12;8.10;99.90
17599;DHT22;8918;52.092;5.232;2022-12-22T09:13:37;8.20;99.90
17599;DHT22;8918;52.092;5.232;2022-12-22T09:16:07;8.20;99.90
17599;DHT22;8918;52.092;5.232;2022-12-22T09:18:33;8.30;99.90
17599;DHT22;8918;52.092;5.232;2022-12-22T09:20:59;8.30;99.90
17599;DHT22;8918;52.092;5.232;2022-12-22T09:23:25;8.40;99.90
17599;DHT22;8918;52.092;5.232;2022-12-22T09:25:51;8.30;99.90
17599;DHT22;8918;52.092;5.232;2022-12-22T09:28:16;8.30;99.90
17599;DHT22;8918;52.092;5.232;2022-12-22T09:30:47;8.20;99.90
17599;DHT22;8918;52.092;5.232;2022-12-22T09:33:13;8.20;99.90
17599;DHT22;8918;52.092;5.232;2022-12-22T09:35:40;8.10;99.90
17599;DHT22;8918;52.092;5.232;2022-12-22T09:38:05;8.10;99.90
17599;DHT22;8918;52.092;5.232;2022-12-22T09:40:31;8.10;99.90
17599;DHT22;8918;52.092;5.232;2022-12-22T09:42:57;8.10;99.90
17599;DHT22;8918;52.092;5.232;2022-12-22T09:45:23;8.20;99.90
17599;DHT22;8918;52.092;5.232;2022-12-22T09:47:50;8.20;99.90
17599;DHT22;8918;52.092;5.232;2022-12-22T09:50:24;8.30;99.90
17599;DHT22;8918;52.092;5.232;2022-12-22T09:52:59;8.30;99.90
17599;DHT22;8918;52.092;5.232;2022-12-22T09:57:52;8.40;99.90
17599;DHT22;8918;52.092;5.232;2022-12-22T10:00:21;8.40;99.90
17599;DHT22;8918;52.092;5.232;2022-12-22T10:06:02;8.50;99.90
17599;DHT22;8918;52.092;5.232;2022-12-22T10:08:31;8.40;99.90
17599;DHT22;8918;52.092;5.232;2022-12-22T10:10:58;8.40;99.90
17599;DHT22;8918;52.092;5.232;2022-12-22T10:13:23;8.60;99.90
17599;DHT22;8918;52.092;5.232;2022-12-22T10:15:49;8.70;99.90
17599;DHT22;8918;52.092;5.232;2022-12-22T10:18:22;8.70;99.90
17599;DHT22;8918;52.092;5.232;2022-12-22T10:21:11;9.00;99.90
17599;DHT22;8918;52.092;5.232;2022-12-22T10:23:43;9.40;99.90
17599;DHT22;8918;52.092;5.232;2022-12-22T10:26:16;10.00;99.90
17599;DHT22;8918;52.092;5.232;2022-12-22T10:29:00;11.00;99.90
17599;DHT22;8918;52.092;5.232;2022-12-22T10:31:30;12.10;99.90
17599;DHT22;8918;52.092;5.232;2022-12-22T10:34:09;13.00;99.90
17599;DHT22;8918;52.092;5.232;2022-12-22T10:36:35;13.80;99.90
17599;DHT22;8918;52.092;5.232;2022-12-22T10:39:06;13.90;99.90
17599;DHT22;8918;52.092;5.232;2022-12-22T10:41:45;13.60;99.90
17599;DHT22;8918;52.092;5.232;2022-12-22T10:46:43;14.10;99.90
17599;DHT22;8918;52.092;5.232;2022-12-22T10:51:41;15.00;99.90
17599;DHT22;8918;52.092;5.232;2022-12-22T10:54:08;15.60;99.90
17599;DHT22;8918;52.092;5.232;2022-12-22T10:56:34;16.10;99.90
17599;DHT22;8918;52.092;5.232;2022-12-22T10:59:19;16.80;99.90
17599;DHT22;8918;52.092;5.232;2022-12-22T11:01:45;17.20;99.90
17599;DHT22;8918;52.092;5.232;2022-12-22T11:04:29;17.40;99.90
17599;DHT22;8918;52.092;5.232;2022-12-22T11:06:57;17.20;99.90
17599;DHT22;8918;52.092;5.232;2022-12-22T11:09:25;16.80;99.90
17599;DHT22;8918;52.092;5.232;2022-12-22T11:12:04;16.90;99.90
17599;DHT22;8918;52.092;5.232;2022-12-22T11:15:01;17.40;99.90
17599;DHT22;8918;52.092;5.232;2022-12-22T11:28:37;14.60;99.90
17599;DHT22;8918;52.092;5.232;2022-12-22T11:37:04;13.60;99.90
17599;DHT22;8918;52.092;5.232;2022-12-22T11:42:45;13.00;99.90
17599;DHT22;8918;52.092;5.232;2022-12-22T11:51:19;12.50;99.90
17599;DHT22;8918;52.092;5.232;2022-12-22T11:57:01;12.40;99.90
17599;DHT22;8918;52.092;5.232;2022-12-22T11:59:52;12.60;99.90
17599;DHT22;8918;52.092;5.232;2022-12-22T12:02:43;12.90;99.90
17599;DHT22;8918;52.092;5.232;2022-12-22T12:08:33;12.40;99.90
17599;DHT22;8918;52.092;5.232;2022-12-22T12:16:50;11.50;99.90
17599;DHT22;8918;52.092;5.232;2022-12-22T12:21:51;10.90;99.90
17599;DHT22;8918;52.092;5.232;2022-12-22T12:24:34;10.70;99.90
17599;DHT22;8918;52.092;5.232;2022-12-22T12:30:06;10.30;99.90
17599;DHT22;8918;52.092;5.232;2022-12-22T12:33:02;10.20;99.90
17599;DHT22;8918;52.092;5.232;2022-12-22T12:41:13;9.70;99.90
17599;DHT22;8918;52.092;5.232;2022-12-22T12:43:43;9.60;99.90
17599;DHT22;8918;52.092;5.232;2022-12-22T12:52:03;8.90;99.90
17599;DHT22;8918;52.092;5.232;2022-12-22T13:02:45;8.50;99.90
17599;DHT22;8918;52.092;5.232;2022-12-22T13:05:51;8.50;99.90
17599;DHT22;8918;52.092;5.232;2022-12-22T13:09:09;8.30;99.90
17599;DHT22;8918;52.092;5.232;2022-12-22T13:11:30;8.20;99.90
17599;DHT22;8918;52.092;5.232;2022-12-22T13:13:56;8.20;99.90
17599;DHT22;8918;52.092;5.232;2022-12-22T13:16:24;8.20;99.90
17599;DHT22;8918;52.092;5.232;2022-12-22T13:18:51;8.10;99.90
17599;DHT22;8918;52.092;5.232;2022-12-22T13:21:27;8.10;99.90
17599;DHT22;8918;52.092;5.232;2022-12-22T13:24:20;8.20;99.90
17599;DHT22;8918;52.092;5.232;2022-12-22T13:26:48;8.20;99.90
17599;DHT22;8918;52.092;5.232;2022-12-22T13:31:52;8.20;99.90
17599;DHT22;8918;52.092;5.232;2022-12-22T13:36:50;8.20;99.90
17599;DHT22;8918;52.092;5.232;2022-12-22T13:39:16;8.20;99.90
17599;DHT22;8918;52.092;5.232;2022-12-22T13:41:45;8.20;99.90
17599;DHT22;8918;52.092;5.232;2022-12-22T13:44:15;8.30;99.90
17599;DHT22;8918;52.092;5.232;2022-12-22T13:46:42;8.30;99.90
17599;DHT22;8918;52.092;5.232;2022-12-22T13:49:12;8.30;99.90
17599;DHT22;8918;52.092;5.232;2022-12-22T13:51:39;8.40;99.90
17599;DHT22;8918;52.092;5.232;2022-12-22T13:56:37;8.40;99.90
17599;DHT22;8918;52.092;5.232;2022-12-22T13:59:04;8.40;99.90
17599;DHT22;8918;52.092;5.232;2022-12-22T14:01:48;8.40;99.90
17599;DHT22;8918;52.092;5.232;2022-12-22T14:04:14;8.40;99.90
17599;DHT22;8918;52.092;5.232;2022-12-22T14:06:40;8.50;99.90
17599;DHT22;8918;52.092;5.232;2022-12-22T14:09:25;8.50;99.90
17599;DHT22;8918;52.092;5.232;2022-12-22T14:11:57;8.50;99.90
17599;DHT22;8918;52.092;5.232;2022-12-22T14:14:30;8.50;99.90
17599;DHT22;8918;52.092;5.232;2022-12-22T14:16:59;8.50;99.90
17599;DHT22;8918;52.092;5.232;2022-12-22T14:19:29;8.50;99.90
17599;DHT22;8918;52.092;5.232;2022-12-22T14:22:03;8.60;99.90
17599;DHT22;8918;52.092;5.232;2022-12-22T14:24:52;8.50;99.90
17599;DHT22;8918;52.092;5.232;2022-12-22T14:27:30;8.60;99.90
17599;DHT22;8918;52.092;5.232;2022-12-22T14:29:59;8.60;99.90
17599;DHT22;8918;52.092;5.232;2022-12-22T14:32:39;8.60;99.90
17599;DHT22;8918;52.092;5.232;2022-12-22T14:35:27;8.60;99.90
17599;DHT22;8918;52.092;5.232;2022-12-22T14:38:06;8.60;99.90
17599;DHT22;8918;52.092;5.232;2022-12-22T14:40:37;8.60;99.90
17599;DHT22;8918;52.092;5.232;2022-12-22T14:45:47;8.60;99.90
17599;DHT22;8918;52.092;5.232;2022-12-22T14:48:19;8.50;99.90
17599;DHT22;8918;52.092;5.232;2022-12-22T14:50:49;8.60;99.90
17599;DHT22;8918;52.092;5.232;2022-12-22T14:53:23;8.60;99.90
17599;DHT22;8918;52.092;5.232;2022-12-22T14:55:50;8.70;99.90
17599;DHT22;8918;52.092;5.232;2022-12-22T14:58:31;8.60;99.90
17599;DHT22;8918;52.092;5.232;2022-12-22T15:03:38;8.60;99.90
17599;DHT22;8918;52.092;5.232;2022-12-22T15:06:22;8.60;99.90
17599;DHT22;8918;52.092;5.232;2022-12-22T15:08:52;8.70;99.90
17599;DHT22;8918;52.092;5.232;2022-12-22T15:11:20;8.70;99.90
17599;DHT22;8918;52.092;5.232;2022-12-22T15:13:48;8.70;99.90
17599;DHT22;8918;52.092;5.232;2022-12-22T15:16:19;8.80;99.90
17599;DHT22;8918;52.092;5.232;2022-12-22T15:18:46;8.80;99.90
17599;DHT22;8918;52.092;5.232;2022-12-22T15:21:14;8.80;99.90
17599;DHT22;8918;52.092;5.232;2022-12-22T15:23:40;8.70;99.90
17599;DHT22;8918;52.092;5.232;2022-12-22T15:26:06;8.70;99.90
17599;DHT22;8918;52.092;5.232;2022-12-22T15:28:32;8.70;99.90
17599;DHT22;8918;52.092;5.232;2022-12-22T15:30:58;8.70;99.90
17599;DHT22;8918;52.092;5.232;2022-12-22T15:33:25;8.70;99.90
17599;DHT22;8918;52.092;5.232;2022-12-22T15:35:50;8.70;99.90
17599;DHT22;8918;52.092;5.232;2022-12-22T15:38:19;8.80;99.90
17599;DHT22;8918;52.092;5.232;2022-12-22T15:40:45;8.80;99.90
17599;DHT22;8918;52.092;5.232;2022-12-22T15:43:11;8.80;99.90
17599;DHT22;8918;52.092;5.232;2022-12-22T15:45:37;8.80;99.90
17599;DHT22;8918;52.092;5.232;2022-12-22T15:48:04;8.70;99.90
17599;DHT22;8918;52.092;5.232;2022-12-22T15:50:35;8.70;99.90
17599;DHT22;8918;52.092;5.232;2022-12-22T15:53:02;8.70;99.90
17599;DHT22;8918;52.092;5.232;2022-12-22T15:55:29;8.70;99.90
17599;DHT22;8918;52.092;5.232;2022-12-22T15:57:56;8.70;99.90
17599;DHT22;8918;52.092;5.232;2022-12-22T16:00:23;8.60;99.90
17599;DHT22;8918;52.092;5.232;2022-12-22T16:02:49;8.60;99.90
17599;DHT22;8918;52.092;5.232;2022-12-22T16:05:15;8.60;99.90
17599;DHT22;8918;52.092;5.232;2022-12-22T16:07:42;8.60;99.90
17599;DHT22;8918;52.092;5.232;2022-12-22T16:10:19;8.60;99.90
17599;DHT22;8918;52.092;5.232;2022-12-22T16:12:46;8.50;99.90
17599;DHT22;8918;52.092;5.232;2022-12-22T16:15:20;8.60;99.90
17599;DHT22;8918;52.092;5.232;2022-12-22T16:17:47;8.60;99.90
17599;DHT22;8918;52.092;5.232;2022-12-22T16:20:13;8.50;99.90
17599;DHT22;8918;52.092;5.232;2022-12-22T16:22:39;8.50;99.90
17599;DHT22;8918;52.092;5.232;2022-12-22T16:25:12;8.50;99.90
17599;DHT22;8918;52.092;5.232;2022-12-22T16:27:39;8.50;99.90
17599;DHT22;8918;52.092;5.232;2022-12-22T16:30:05;8.40;99.90
17599;DHT22;8918;52.092;5.232;2022-12-22T16:32:31;8.50;99.90
17599;DHT22;8918;52.092;5.232;2022-12-22T16:37:38;8.60;99.90
17599;DHT22;8918;52.092;5.232;2022-12-22T16:40:04;8.50;99.90
17599;DHT22;8918;52.092;5.232;2022-12-22T16:42:30;8.50;99.90
17599;DHT22;8918;52.092;5.232;2022-12-22T16:44:56;8.50;99.90
17599;DHT22;8918;52.092;5.232;2022-12-22T16:47:30;8.50;99.90
17599;DHT22;8918;52.092;5.232;2022-12-22T16:49:56;8.60;99.90
17599;DHT22;8918;52.092;5.232;2022-12-22T16:52:36;8.50;99.90
17599;DHT22;8918;52.092;5.232;2022-12-22T16:55:05;8.50;99.90
17599;DHT22;8918;52.092;5.232;2022-12-22T16:57:31;8.50;99.90
17599;DHT22;8918;52.092;5.232;2022-12-22T16:59:57;8.60;99.90
17599;DHT22;8918;52.092;5.232;2022-12-22T17:02:23;8.60;99.90
17599;DHT22;8918;52.092;5.232;2022-12-22T17:04:50;8.60;99.90
17599;DHT22;8918;52.092;5.232;2022-12-22T17:07:16;8.70;99.90
17599;DHT22;8918;52.092;5.232;2022-12-22T17:09:49;8.60;99.90
17599;DHT22;8918;52.092;5.232;2022-12-22T17:12:19;8.60;99.90
17599;DHT22;8918;52.092;5.232;2022-12-22T17:14:46;8.60;99.90
17599;DHT22;8918;52.092;5.232;2022-12-22T17:17:16;8.70;99.90
17599;DHT22;8918;52.092;5.232;2022-12-22T17:19:43;8.70;99.90
17599;DHT22;8918;52.092;5.232;2022-12-22T17:24:44;8.60;99.90
17599;DHT22;8918;52.092;5.232;2022-12-22T17:27:10;8.60;99.90
17599;DHT22;8918;52.092;5.232;2022-12-22T17:29:36;8.60;99.90
17599;DHT22;8918;52.092;5.232;2022-12-22T17:32:03;8.70;99.90
17599;DHT22;8918;52.092;5.232;2022-12-22T17:34:28;8.70;99.90
17599;DHT22;8918;52.092;5.232;2022-12-22T17:36:54;8.70;99.90
17599;DHT22;8918;52.092;5.232;2022-12-22T17:39:23;8.70;99.90
17599;DHT22;8918;52.092;5.232;2022-12-22T17:41:49;8.70;99.90
17599;DHT22;8918;52.092;5.232;2022-12-22T17:44:18;8.70;99.90
17599;DHT22;8918;52.092;5.232;2022-12-22T17:46:44;8.60;99.90
17599;DHT22;8918;52.092;5.232;2022-12-22T17:49:09;8.60;99.90
17599;DHT22;8918;52.092;5.232;2022-12-22T17:51:36;8.60;99.90
17599;DHT22;8918;52.092;5.232;2022-12-22T17:54:02;8.60;99.90
17599;DHT22;8918;52.092;5.232;2022-12-22T17:56:29;8.60;99.90
17599;DHT22;8918;52.092;5.232;2022-12-22T17:58:55;8.70;99.90
17599;DHT22;8918;52.092;5.232;2022-12-22T18:03:49;8.60;99.90
17599;DHT22;8918;52.092;5.232;2022-12-22T18:06:15;8.60;99.90
17599;DHT22;8918;52.092;5.232;2022-12-22T18:08:42;8.60;99.90
17599;DHT22;8918;52.092;5.232;2022-12-22T18:11:08;8.60;99.90
17599;DHT22;8918;52.092;5.232;2022-12-22T18:13:34;8.60;99.90
17599;DHT22;8918;52.092;5.232;2022-12-22T18:16:01;8.70;99.90
17599;DHT22;8918;52.092;5.232;2022-12-22T18:18:26;8.70;99.90
17599;DHT22;8918;52.092;5.232;2022-12-22T18:20:52;8.80;99.90
17599;DHT22;8918;52.092;5.232;2022-12-22T18:23:27;8.80;99.90